Time;durP1;ratioP1;P1;durP2;ratioP2;P2;SDS_P1;SDS_P2;PMS_P1;PMS_P2;Temp;Humidity;BMP_temperature;BMP_pressure;BME280_temperature;BME280_humidity;BME280_pressure;Samples;Min_cycle;Max_cycle;Signal;HPM_P1;HPM_P2
2022/09/02 00:01:30;;;;;;;1.70;0.40;;;;;;;-142.37;100.00;59669.53;4975987;28;20125;-65
2022/09/02 00:03:59;;;;;;;1.60;0.40;;;;;;;-142.37;100.00;59669.53;4976655;28;20034;-65
2022/09/02 00:06:26;;;;;;;1.48;0.52;;;;;;;-142.37;100.00;59669.53;4976481;28;20419;-65
2022/09/02 00:08:52;;;;;;;2.42;0.40;;;;;;;-142.37;100.00;59669.53;4958872;28;20456;-66
2022/09/02 00:11:21;;;;;;;1.38;0.40;;;;;;;-142.37;100.00;59669.53;4975887;28;20035;-65
2022/09/02 00:13:48;;;;;;;2.35;0.52;;;;;;;-142.37;100.00;59669.53;4976219;28;20061;-66
2022/09/02 00:16:14;;;;;;;1.17;0.40;;;;;;;-142.37;100.00;59669.53;4975983;28;20034;-67
2022/09/02 00:18:40;;;;;;;0.63;0.43;;;;;;;-142.37;100.00;59669.53;4975979;28;20035;-65
2022/09/02 00:21:07;;;;;;;1.95;0.52;;;;;;;-142.37;100.00;59669.53;4958368;28;20471;-65
2022/09/02 00:23:32;;;;;;;0.40;0.20;;;;;;;-142.37;100.00;59669.53;4975904;28;20027;-66
2022/09/02 00:25:59;;;;;;;1.45;0.40;;;;;;;-142.37;100.00;59669.53;4975870;28;20073;-65
2022/09/02 00:28:25;;;;;;;2.10;0.40;;;;;;;-142.37;100.00;59669.53;4975657;28;20054;-65
2022/09/02 00:30:50;;;;;;;3.70;0.50;;;;;;;-142.37;100.00;59669.53;4974365;28;20439;-65
2022/09/02 00:33:16;;;;;;;1.48;0.30;;;;;;;-142.37;100.00;59669.53;4958436;28;20574;-66
2022/09/02 00:35:42;;;;;;;2.15;0.40;;;;;;;-142.37;100.00;59669.53;4976143;28;20038;-66
2022/09/02 00:38:09;;;;;;;1.13;0.40;;;;;;;-142.37;100.00;59669.53;4975740;28;20042;-64
2022/09/02 00:40:35;;;;;;;0.95;0.30;;;;;;;-142.37;100.00;59669.53;4975532;28;20034;-66
2022/09/02 00:43:06;;;;;;;1.30;0.45;;;;;;;-142.37;100.00;59669.53;4957821;28;20409;-65
2022/09/02 00:45:31;;;;;;;0.50;0.32;;;;;;;-142.37;100.00;59669.53;4957322;28;20042;-65
2022/09/02 00:47:57;;;;;;;1.42;0.30;;;;;;;-142.37;100.00;59669.53;4958352;28;20403;-64
2022/09/02 00:50:28;;;;;;;0.65;0.30;;;;;;;-142.37;100.00;59669.53;4958111;28;20101;-65
2022/09/02 00:53:01;;;;;;;0.95;0.30;;;;;;;-142.37;100.00;59669.53;4957963;28;20464;-66
2022/09/02 00:55:31;;;;;;;2.80;0.45;;;;;;;-142.37;100.00;59669.53;4958010;28;20395;-65
2022/09/02 00:58:12;;;;;;;0.60;0.38;;;;;;;-142.37;100.00;59669.53;4975446;28;20378;-64
2022/09/02 01:00:43;;;;;;;2.75;0.40;;;;;;;-142.37;100.00;59669.53;4975174;28;20033;-66
2022/09/02 01:03:15;;;;;;;1.20;0.45;;;;;;;-142.37;100.00;59669.53;4957695;28;20034;-65
2022/09/02 01:05:44;;;;;;;2.55;0.30;;;;;;;-142.37;100.00;59669.53;4957687;28;20447;-66
2022/09/02 01:08:13;;;;;;;1.23;0.38;;;;;;;-142.37;100.00;59669.53;4957564;28;20114;-66
2022/09/02 01:10:39;;;;;;;0.60;0.28;;;;;;;-142.37;100.00;59669.53;4957646;28;20034;-65
2022/09/02 01:13:14;;;;;;;0.70;0.22;;;;;;;-142.37;100.00;59669.53;4957715;28;20066;-67
2022/09/02 01:15:44;;;;;;;2.63;0.30;;;;;;;-142.37;100.00;59669.53;4975039;28;20027;-66
2022/09/02 01:18:17;;;;;;;0.90;0.40;;;;;;;-142.37;100.00;59669.53;4957472;28;20093;-65
2022/09/02 01:20:43;;;;;;;1.08;0.40;;;;;;;-142.37;100.00;59669.53;4974753;28;20511;-65
2022/09/02 01:23:09;;;;;;;2.83;0.40;;;;;;;-142.37;100.00;59669.53;4974380;28;20030;-65
2022/09/02 01:25:35;;;;;;;2.05;0.35;;;;;;;-142.37;100.00;59669.53;4973577;28;20030;-66
2022/09/02 01:28:07;;;;;;;1.65;0.38;;;;;;;-142.37;100.00;59669.53;4974474;28;20480;-65
2022/09/02 01:30:35;;;;;;;1.27;0.55;;;;;;;-142.37;100.00;59669.53;4957031;28;20515;-66
2022/09/02 01:33:01;;;;;;;0.43;0.20;;;;;;;-142.37;100.00;59669.53;4974245;28;20507;-66
2022/09/02 01:35:27;;;;;;;0.55;0.20;;;;;;;-142.37;100.00;59669.53;4957064;28;20030;-65
2022/09/02 01:37:57;;;;;;;3.65;0.70;;;;;;;-142.37;100.00;59669.53;4974861;28;20042;-65
2022/09/02 01:40:26;;;;;;;1.40;0.55;;;;;;;-142.37;100.00;59669.53;4973370;28;20030;-65
2022/09/02 01:43:17;;;;;;;3.20;0.60;;;;;;;-142.37;100.00;59669.53;4974472;28;20405;-66
2022/09/02 01:45:45;;;;;;;1.65;0.35;;;;;;;-142.37;100.00;59669.53;4956981;28;20038;-65
2022/09/02 01:48:13;;;;;;;0.60;0.40;;;;;;;-142.37;100.00;59669.53;4957090;28;20134;-67
2022/09/02 01:50:44;;;;;;;2.00;0.60;;;;;;;-142.37;100.00;59669.53;4974216;28;20540;-66
2022/09/02 01:53:09;;;;;;;6.55;0.80;;;;;;;-142.37;100.00;59669.53;4974558;28;20112;-66
2022/09/02 01:55:35;;;;;;;2.45;0.35;;;;;;;-142.37;100.00;59669.53;4974860;28;20066;-67
2022/09/02 01:58:02;;;;;;;3.78;0.50;;;;;;;-142.37;100.00;59669.53;4974301;28;20467;-66
2022/09/02 02:00:28;;;;;;;0.32;0.30;;;;;;;-142.37;100.00;59669.53;4975009;28;20034;-65
2022/09/02 02:02:53;;;;;;;1.13;0.43;;;;;;;-142.37;100.00;59669.53;4957542;28;20380;-65
2022/09/02 02:05:19;;;;;;;0.60;0.50;;;;;;;-142.37;100.00;59669.53;4974172;28;20463;-66
2022/09/02 02:07:45;;;;;;;1.00;0.30;;;;;;;-142.37;100.00;59669.53;4973209;28;20027;-66
2022/09/02 02:10:13;;;;;;;1.02;0.52;;;;;;;-142.37;100.00;59669.53;4956807;28;20117;-64
2022/09/02 02:12:39;;;;;;;1.55;0.30;;;;;;;-142.37;100.00;59669.53;4956589;28;20035;-66
2022/09/02 02:15:07;;;;;;;1.40;0.52;;;;;;;-142.37;100.00;59669.53;4956318;28;20082;-65
2022/09/02 02:17:33;;;;;;;1.55;0.50;;;;;;;-142.37;100.00;59669.53;4956511;28;20042;-66
2022/09/02 02:19:59;;;;;;;0.93;0.30;;;;;;;-142.37;100.00;59669.53;4974264;28;20038;-66
2022/09/02 02:22:26;;;;;;;2.85;0.20;;;;;;;-142.37;100.00;59669.53;4974355;28;20037;-67
2022/09/02 02:24:53;;;;;;;0.77;0.40;;;;;;;-142.37;100.00;59669.53;4974081;28;20464;-66
2022/09/02 02:27:19;;;;;;;1.17;0.30;;;;;;;-142.37;100.00;59669.53;4973956;28;20036;-66
2022/09/02 02:29:46;;;;;;;2.17;0.55;;;;;;;-142.37;100.00;59669.53;4974193;28;20451;-66
2022/09/02 02:32:12;;;;;;;2.08;0.32;;;;;;;-142.37;100.00;59669.53;4973979;28;20026;-66
2022/09/02 02:34:38;;;;;;;1.17;0.32;;;;;;;-142.37;100.00;59669.53;4955963;28;20037;-65
2022/09/02 02:37:04;;;;;;;0.55;0.20;;;;;;;-142.37;100.00;59669.53;4955699;28;20065;-66
2022/09/02 02:39:30;;;;;;;0.98;0.15;;;;;;;-142.37;100.00;59669.53;4956083;28;20419;-67
2022/09/02 02:41:56;;;;;;;1.38;0.50;;;;;;;-142.37;100.00;59669.53;4973567;28;20031;-66
2022/09/02 02:44:22;;;;;;;0.73;0.30;;;;;;;-142.37;100.00;59669.53;4973539;28;20027;-67
2022/09/02 02:46:48;;;;;;;2.08;0.57;;;;;;;-142.37;100.00;59669.53;4973532;28;20027;-65
2022/09/02 02:49:13;;;;;;;4.00;0.70;;;;;;;-142.37;100.00;59669.53;4973021;28;20434;-66
2022/09/02 02:51:39;;;;;;;1.65;0.50;;;;;;;-142.37;100.00;59669.53;4973298;28;20460;-66
2022/09/02 02:54:05;;;;;;;0.90;0.30;;;;;;;-142.37;100.00;59669.53;4973827;28;20034;-66
2022/09/02 02:56:31;;;;;;;0.47;0.20;;;;;;;-142.37;100.00;59669.53;4973462;28;20035;-66
2022/09/02 02:59:00;;;;;;;1.33;0.35;;;;;;;-142.37;100.00;59669.53;4955574;28;20061;-65
2022/09/02 03:01:25;;;;;;;0.80;0.20;;;;;;;-142.37;100.00;59669.53;4973407;28;20180;-67
2022/09/02 03:03:53;;;;;;;2.67;0.47;;;;;;;-142.37;100.00;59669.53;4973626;28;20027;-65
2022/09/02 03:06:18;;;;;;;2.40;0.25;;;;;;;-142.37;100.00;59669.53;4973321;28;20495;-67
2022/09/02 03:08:45;;;;;;;1.75;0.32;;;;;;;-142.37;100.00;59669.53;4955317;28;20117;-65
2022/09/02 03:11:11;;;;;;;2.40;0.40;;;;;;;-142.37;100.00;59669.53;4972919;28;20406;-65
2022/09/02 03:13:37;;;;;;;1.05;0.30;;;;;;;-142.37;100.00;59669.53;4973461;28;20023;-66
2022/09/02 03:16:05;;;;;;;1.98;0.30;;;;;;;-142.37;100.00;59669.53;4972058;28;20107;-65
2022/09/02 03:18:31;;;;;;;3.20;0.20;;;;;;;-142.37;100.00;59669.53;4955797;28;20034;-64
2022/09/02 03:20:57;;;;;;;0.75;0.43;;;;;;;-142.37;100.00;59669.53;4955493;28;20125;-68
2022/09/02 03:23:23;;;;;;;0.60;0.43;;;;;;;-142.37;100.00;59669.53;4955631;28;20122;-66
2022/09/02 03:25:49;;;;;;;2.53;0.30;;;;;;;-142.37;100.00;59669.53;4955403;28;20396;-65
2022/09/02 03:28:14;;;;;;;1.58;0.40;;;;;;;-142.37;100.00;59669.53;4955604;28;20058;-65
2022/09/02 03:30:41;;;;;;;0.75;0.57;;;;;;;-142.37;100.00;59669.53;4972961;28;20023;-65
2022/09/02 03:33:07;;;;;;;0.20;0.20;;;;;;;-142.37;100.00;59669.53;4955530;28;20081;-65
2022/09/02 03:35:38;;;;;;;0.40;0.17;;;;;;;-142.37;100.00;59669.53;4972905;28;20380;-66
2022/09/02 03:38:04;;;;;;;1.77;0.30;;;;;;;-142.37;100.00;59669.53;4972788;28;20498;-66
2022/09/02 03:40:30;;;;;;;2.50;0.52;;;;;;;-142.37;100.00;59669.53;4972764;28;20043;-65
2022/09/02 03:42:56;;;;;;;0.95;0.40;;;;;;;-142.37;100.00;59669.53;4972816;28;20033;-66
2022/09/02 03:45:23;;;;;;;5.30;0.77;;;;;;;-142.37;100.00;59669.53;4973024;28;20034;-66
2022/09/02 03:47:55;;;;;;;1.38;0.25;;;;;;;-142.37;100.00;59669.53;4972805;28;20022;-66
2022/09/02 03:50:24;;;;;;;1.65;0.73;;;;;;;-142.37;100.00;59669.53;4971308;28;20047;-64
2022/09/02 03:52:50;;;;;;;0.82;0.38;;;;;;;-142.37;100.00;59669.53;4972608;28;20035;-65
2022/09/02 03:55:18;;;;;;;0.93;0.30;;;;;;;-142.37;100.00;59669.53;4955345;28;20031;-65
2022/09/02 03:57:44;;;;;;;4.00;0.40;;;;;;;-142.37;100.00;59669.53;4972693;28;20480;-65
2022/09/02 04:00:12;;;;;;;2.72;0.45;;;;;;;-142.37;100.00;59669.53;4972637;28;20035;-65
2022/09/02 04:02:38;;;;;;;1.83;0.30;;;;;;;-142.37;100.00;59669.53;4972633;28;20110;-66
2022/09/02 04:05:04;;;;;;;2.00;0.40;;;;;;;-142.37;100.00;59669.53;4954999;28;20505;-67
2022/09/02 04:07:30;;;;;;;0.75;0.30;;;;;;;-142.37;100.00;59669.53;4972281;28;20106;-65
2022/09/02 04:09:56;;;;;;;2.50;0.30;;;;;;;-142.37;100.00;59669.53;4972677;28;20027;-65
2022/09/02 04:12:22;;;;;;;4.70;0.55;;;;;;;-142.37;100.00;59669.53;4972473;28;20541;-66
2022/09/02 04:14:48;;;;;;;1.25;0.40;;;;;;;-142.37;100.00;59669.53;4955325;28;20444;-66
2022/09/02 04:17:14;;;;;;;1.85;0.20;;;;;;;-142.37;100.00;59669.53;4972352;28;20027;-65
2022/09/02 04:19:39;;;;;;;1.65;0.22;;;;;;;-142.37;100.00;59669.53;4972419;28;20053;-67
2022/09/02 04:22:06;;;;;;;1.38;0.98;;;;;;;-142.37;100.00;59669.53;4957475;28;20031;-66
2022/09/02 04:24:32;;;;;;;1.40;0.30;;;;;;;-142.37;100.00;59669.53;4975635;28;20023;-66
2022/09/02 04:26:58;;;;;;;3.17;0.50;;;;;;;-142.37;100.00;59669.53;4975440;28;20029;-66
2022/09/02 04:29:25;;;;;;;2.92;0.50;;;;;;;-142.37;100.00;59669.53;4975355;28;20133;-65
2022/09/02 04:31:51;;;;;;;1.13;0.30;;;;;;;-142.37;100.00;59669.53;4958252;28;20037;-66
2022/09/02 04:34:18;;;;;;;0.55;0.20;;;;;;;-142.37;100.00;59669.53;4975701;28;20042;-66
2022/09/02 04:36:44;;;;;;;1.33;0.52;;;;;;;-142.37;100.00;59669.53;4975519;28;20425;-67
2022/09/02 04:39:09;;;;;;;2.10;0.32;;;;;;;-142.37;100.00;59669.53;4958220;28;20118;-67
2022/09/02 04:41:36;;;;;;;2.72;0.40;;;;;;;-142.37;100.00;59669.53;4957992;28;20065;-67
2022/09/02 04:44:03;;;;;;;0.70;0.20;;;;;;;-142.37;100.00;59669.53;4957891;28;20037;-67
2022/09/02 04:46:29;;;;;;;1.13;0.35;;;;;;;-142.37;100.00;59669.53;4958058;28;20097;-66
2022/09/02 04:48:56;;;;;;;0.63;0.28;;;;;;;-142.37;100.00;59669.53;4975297;28;20026;-67
2022/09/02 04:51:24;;;;;;;2.58;1.05;;;;;;;-142.37;100.00;59669.53;4973640;28;20026;-67
2022/09/02 04:53:52;;;;;;;2.65;0.52;;;;;;;-142.37;100.00;59669.53;4974991;28;20039;-67
2022/09/02 04:56:24;;;;;;;0.93;0.40;;;;;;;-142.37;100.00;59669.53;4975214;28;20035;-66
2022/09/02 04:58:50;;;;;;;1.55;0.30;;;;;;;-142.37;100.00;59669.53;4957542;28;20035;-67
2022/09/02 05:01:20;;;;;;;1.83;0.30;;;;;;;-142.37;100.00;59669.53;4956327;28;20403;-66
2022/09/02 05:03:46;;;;;;;2.13;0.47;;;;;;;-142.37;100.00;59669.53;4974237;28;20082;-66
2022/09/02 05:06:19;;;;;;;2.30;0.52;;;;;;;-142.37;100.00;59669.53;4973655;28;20027;-66
2022/09/02 05:08:46;;;;;;;1.02;0.50;;;;;;;-142.37;100.00;59669.53;4974958;28;20112;-66
2022/09/02 05:11:18;;;;;;;1.13;1.02;;;;;;;-142.37;100.00;59669.53;4972498;28;20443;-67
2022/09/02 05:13:48;;;;;;;7.18;0.50;;;;;;;-142.37;100.00;59669.53;4957041;28;20031;-68
2022/09/02 05:16:20;;;;;;;0.98;0.20;;;;;;;-142.37;100.00;59669.53;4972943;28;20034;-68
2022/09/02 05:18:47;;;;;;;0.93;0.40;;;;;;;-142.37;100.00;59669.53;4974010;28;20031;-66
2022/09/02 05:21:12;;;;;;;1.42;0.38;;;;;;;-142.37;100.00;59669.53;4973909;28;20057;-67
2022/09/02 05:23:38;;;;;;;2.00;0.50;;;;;;;-142.37;100.00;59669.53;4956899;28;20400;-70
2022/09/02 05:26:09;;;;;;;1.73;0.35;;;;;;;-142.37;100.00;59669.53;4974011;28;20121;-67
2022/09/02 05:28:35;;;;;;;2.30;0.70;;;;;;;-142.37;100.00;59669.53;4956268;28;20097;-66
2022/09/02 05:31:09;;;;;;;2.15;0.30;;;;;;;-142.37;100.00;59669.53;4956347;28;20023;-66
2022/09/02 05:33:39;;;;;;;6.70;0.57;;;;;;;-142.37;100.00;59669.53;4955889;28;20034;-68
2022/09/02 05:36:07;;;;;;;1.48;0.30;;;;;;;-142.37;100.00;59669.53;4956558;28;20440;-67
2022/09/02 05:38:33;;;;;;;3.10;0.50;;;;;;;-142.37;100.00;59669.53;4973690;28;20046;-66
2022/09/02 05:41:07;;;;;;;4.72;0.70;;;;;;;-142.37;100.00;59669.53;4973413;28;20043;-67
2022/09/02 05:43:38;;;;;;;2.47;0.43;;;;;;;-142.37;100.00;59669.53;4956687;28;20027;-67
2022/09/02 05:46:09;;;;;;;1.55;0.80;;;;;;;-142.37;100.00;59669.53;4972379;28;20269;-68
2022/09/02 05:51:21;;;;;;;;;;;;;;;-142.37;100.00;59669.53;4973066;28;20096;-68
2022/09/02 05:53:47;;;;;;;3.53;0.68;;;;;;;-142.37;100.00;59669.53;4954895;28;19914;-66
2022/09/02 05:56:13;;;;;;;0.73;0.35;;;;;;;-142.37;100.00;59669.53;4955740;28;20041;-66
2022/09/02 05:58:38;;;;;;;1.80;0.30;;;;;;;-142.37;100.00;59669.53;4972847;28;20468;-66
2022/09/02 06:01:12;;;;;;;1.30;0.40;;;;;;;-142.37;100.00;59669.53;4972702;28;20038;-69
2022/09/02 06:03:38;;;;;;;0.68;0.32;;;;;;;-142.37;100.00;59669.53;4955166;28;20034;-67
2022/09/02 06:06:05;;;;;;;2.60;0.30;;;;;;;-142.37;100.00;59669.53;4973175;28;20038;-67
2022/09/02 06:08:32;;;;;;;1.40;0.40;;;;;;;-142.37;100.00;59669.53;4973167;28;20550;-67
2022/09/02 06:11:00;;;;;;;0.88;0.30;;;;;;;-142.37;100.00;59669.53;4972704;28;20499;-68
2022/09/02 06:13:28;;;;;;;0.75;0.20;;;;;;;-142.37;100.00;59669.53;4954934;28;20027;-68
2022/09/02 06:15:56;;;;;;;0.50;0.15;;;;;;;-142.37;100.00;59669.53;4972788;28;20030;-66
2022/09/02 06:18:22;;;;;;;1.52;0.43;;;;;;;-142.37;100.00;59669.53;4972373;28;20519;-67
2022/09/02 06:20:49;;;;;;;0.98;0.45;;;;;;;-142.37;100.00;59669.53;4954937;28;20030;-67
2022/09/02 06:23:16;;;;;;;1.95;0.20;;;;;;;-142.37;100.00;59669.53;4954814;28;20064;-68
2022/09/02 06:25:44;;;;;;;1.05;0.30;;;;;;;-142.37;100.00;59669.53;4972451;28;20035;-66
2022/09/02 06:28:09;;;;;;;1.05;0.30;;;;;;;-142.37;100.00;59669.53;4972204;28;20097;-66
2022/09/02 06:30:38;;;;;;;2.85;0.57;;;;;;;-142.37;100.00;59669.53;4954044;28;20095;-66
2022/09/02 06:33:04;;;;;;;2.13;0.25;;;;;;;-142.37;100.00;59669.53;4972475;28;20058;-65
2022/09/02 06:35:40;;;;;;;1.35;0.50;;;;;;;-142.37;100.00;59669.53;4972428;28;20499;-67
2022/09/02 06:38:06;;;;;;;1.30;0.20;;;;;;;-142.37;100.00;59669.53;4972149;28;20101;-67
2022/09/02 06:40:32;;;;;;;2.88;0.40;;;;;;;-142.37;100.00;59669.53;4954431;28;20060;-67
2022/09/02 06:42:58;;;;;;;1.48;0.20;;;;;;;-142.37;100.00;59669.53;4953893;28;20042;-68
2022/09/02 06:45:24;;;;;;;0.77;0.25;;;;;;;-142.37;100.00;59669.53;4970918;28;20070;-66
2022/09/02 06:47:52;;;;;;;4.15;0.40;;;;;;;-142.37;100.00;59669.53;4972299;28;20034;-66
2022/09/02 06:50:18;;;;;;;0.63;0.20;;;;;;;-142.37;100.00;59669.53;4972420;28;20102;-67
2022/09/02 06:52:44;;;;;;;2.70;0.22;;;;;;;-142.37;100.00;59669.53;4954741;28;20652;-66
2022/09/02 06:55:09;;;;;;;0.70;0.30;;;;;;;-142.37;100.00;59669.53;4970775;28;20026;-67
2022/09/02 06:57:36;;;;;;;1.20;0.30;;;;;;;-142.37;100.00;59669.53;4954678;28;20027;-68
2022/09/02 07:00:08;;;;;;;2.25;0.40;;;;;;;-142.37;100.00;59669.53;4971093;28;20035;-67
2022/09/02 07:02:35;;;;;;;0.88;0.35;;;;;;;-142.37;100.00;59669.53;4970458;28;20450;-66
2022/09/02 07:05:13;;;;;;;3.80;0.20;;;;;;;-142.37;100.00;59669.53;4954426;28;20395;-67
2022/09/02 07:07:43;;;;;;;0.98;0.50;;;;;;;-142.37;100.00;59669.53;4954968;28;20041;-67
2022/09/02 07:10:12;;;;;;;0.52;0.20;;;;;;;-142.37;100.00;59669.53;4972583;28;20113;-66
2022/09/02 07:12:39;;;;;;;1.17;0.47;;;;;;;-142.37;100.00;59669.53;4954720;28;20035;-67
2022/09/02 07:15:06;;;;;;;1.27;0.28;;;;;;;-142.37;100.00;59669.53;4954742;28;20038;-67
2022/09/02 07:17:33;;;;;;;1.15;0.43;;;;;;;-142.37;100.00;59669.53;4972581;28;20034;-68
2022/09/02 07:19:59;;;;;;;1.10;0.30;;;;;;;-142.37;100.00;59669.53;4972218;28;20045;-67
2022/09/02 07:22:28;;;;;;;1.25;0.20;;;;;;;-142.37;100.00;59669.53;4972514;28;20038;-66
2022/09/02 07:24:54;;;;;;;1.08;0.28;;;;;;;-142.37;100.00;59669.53;4972109;28;20414;-67
2022/09/02 07:27:20;;;;;;;4.05;0.95;;;;;;;-142.37;100.00;59669.53;4971000;28;20472;-66
2022/09/02 07:29:47;;;;;;;6.05;2.42;;;;;;;-142.37;100.00;59669.53;4972387;28;20117;-66
2022/09/02 07:32:17;;;;;;;2.38;0.30;;;;;;;-142.37;100.00;59669.53;4972295;28;20030;-67
2022/09/02 07:34:43;;;;;;;1.23;0.30;;;;;;;-142.37;100.00;59669.53;4972105;28;20547;-66
2022/09/02 07:37:09;;;;;;;1.38;0.40;;;;;;;-142.37;100.00;59669.53;4972349;28;20031;-67
2022/09/02 07:39:35;;;;;;;0.45;0.22;;;;;;;-142.37;100.00;59669.53;4972259;28;20484;-68
2022/09/02 07:42:01;;;;;;;1.10;0.47;;;;;;;-142.37;100.00;59669.53;4953970;28;20121;-69
2022/09/02 07:44:27;;;;;;;2.50;0.82;;;;;;;-142.37;100.00;59669.53;4954632;28;20097;-69
2022/09/02 07:46:53;;;;;;;1.67;0.47;;;;;;;-142.37;100.00;59669.53;4972145;28;20035;-68
2022/09/02 07:49:20;;;;;;;0.90;0.50;;;;;;;-142.37;100.00;59669.53;4971846;28;20039;-69
2022/09/02 07:51:50;;;;;;;1.63;0.50;;;;;;;-142.37;100.00;59669.53;4972546;28;20026;-69
2022/09/02 07:54:20;;;;;;;1.40;0.40;;;;;;;-142.37;100.00;59669.53;4972412;28;20404;-69
2022/09/02 07:56:47;;;;;;;1.40;0.55;;;;;;;-142.37;100.00;59669.53;4957827;28;20395;-68
2022/09/02 07:59:12;;;;;;;0.68;0.20;;;;;;;-142.37;100.00;59669.53;4975566;28;20377;-70
2022/09/02 08:01:38;;;;;;;1.23;0.30;;;;;;;-142.37;100.00;59669.53;4975893;28;20037;-68
2022/09/02 08:04:05;;;;;;;0.63;0.28;;;;;;;-142.37;100.00;59669.53;4958377;28;20027;-69
2022/09/02 08:06:32;;;;;;;0.13;0.10;;;;;;;-142.37;100.00;59669.53;4975947;28;20027;-67
2022/09/02 08:08:58;;;;;;;0.60;0.40;;;;;;;-142.37;100.00;59669.53;4958078;28;20422;-69
2022/09/02 08:11:25;;;;;;;0.57;0.38;;;;;;;-142.37;100.00;59669.53;4958116;28;20034;-68
2022/09/02 08:13:51;;;;;;;1.38;0.30;;;;;;;-142.37;100.00;59669.53;4975848;28;20030;-69
2022/09/02 08:16:17;;;;;;;1.58;0.30;;;;;;;-142.37;100.00;59669.53;4975807;28;20394;-69
2022/09/02 08:18:43;;;;;;;1.58;0.68;;;;;;;-142.37;100.00;59669.53;4957906;28;20030;-69
2022/09/02 08:21:08;;;;;;;4.50;0.60;;;;;;;-142.37;100.00;59669.53;4975328;28;20459;-69
2022/09/02 08:23:34;;;;;;;0.90;0.30;;;;;;;-142.37;100.00;59669.53;4975622;28;20035;-69
2022/09/02 08:26:01;;;;;;;0.93;0.40;;;;;;;-142.37;100.00;59669.53;4975490;28;20043;-68
2022/09/02 08:28:28;;;;;;;0.88;0.65;;;;;;;-142.37;100.00;59669.53;4974800;28;20054;-67
2022/09/02 08:30:58;;;;;;;1.25;0.57;;;;;;;-142.37;100.00;59669.53;4975225;28;20034;-68
2022/09/02 08:33:24;;;;;;;1.42;0.47;;;;;;;-142.37;100.00;59669.53;4957660;28;20043;-67
2022/09/02 08:35:50;;;;;;;2.03;0.47;;;;;;;-142.37;100.00;59669.53;4974922;28;20031;-66
2022/09/02 08:38:16;;;;;;;0.75;0.40;;;;;;;-142.37;100.00;59669.53;4975027;28;20093;-65
2022/09/02 08:40:43;;;;;;;5.90;1.23;;;;;;;-142.37;100.00;59669.53;4975097;28;20336;-66
2022/09/02 08:43:49;;;;;;;0.60;0.40;;;;;;;-142.37;100.00;59669.53;4956976;28;20035;-64
2022/09/02 08:46:17;;;;;;;0.93;0.63;;;;;;;-142.37;100.00;59669.53;4915477;29;20044;-65
2022/09/02 08:48:54;;;;;;;7.88;4.68;;;;;;;-142.37;100.00;59669.53;4915121;29;20171;-65
2022/09/02 08:51:36;;;;;;;1.17;0.40;;;;;;;-142.37;100.00;59669.53;4949048;28;20070;-64
2022/09/02 08:54:07;;;;;;;0.50;0.20;;;;;;;-142.37;100.00;59669.53;4957123;28;20054;-63
2022/09/02 08:56:32;;;;;;;0.40;0.30;;;;;;;-142.37;100.00;59669.53;4974879;28;20037;-64
2022/09/02 08:59:01;;;;;;;1.27;0.50;;;;;;;-142.37;100.00;59669.53;4974068;28;20113;-64
2022/09/02 09:01:39;;;;;;;1.10;0.40;;;;;;;-142.37;100.00;59669.53;4974390;28;20039;-65
2022/09/02 09:04:17;;;;;;;0.73;0.40;;;;;;;-142.37;100.00;59669.53;4974026;28;20415;-62
2022/09/02 09:07:01;;;;;;;2.10;1.13;;;;;;;-142.37;100.00;59669.53;4973672;28;20035;-63
2022/09/02 09:09:49;;;;;;;0.80;0.52;;;;;;;-142.37;100.00;59669.53;4956906;28;20065;-65
2022/09/02 09:12:25;;;;;;;0.75;0.43;;;;;;;-142.37;100.00;59669.53;4956628;28;20049;-65
2022/09/02 09:15:02;;;;;;;1.35;0.38;;;;;;;-142.37;100.00;59669.53;4956129;28;20031;-64
2022/09/02 09:17:59;;;;;;;0.40;0.32;;;;;;;-142.37;100.00;59669.53;4971999;28;20074;-64
2022/09/02 09:20:28;;;;;;;0.40;0.32;;;;;;;-142.37;100.00;59669.53;4954685;28;20058;-63
2022/09/02 09:23:17;;;;;;;0.32;0.30;;;;;;;-142.37;100.00;59669.53;4956174;28;20476;-62
2022/09/02 09:25:47;;;;;;;0.57;0.17;;;;;;;-142.37;100.00;59669.53;4973869;28;20155;-63
2022/09/02 09:28:12;;;;;;;1.00;0.20;;;;;;;-142.37;100.00;59669.53;4955377;28;20046;-63
2022/09/02 09:30:38;;;;;;;1.77;0.40;;;;;;;-142.37;100.00;59669.53;4956487;28;20547;-64
2022/09/02 09:33:04;;;;;;;2.50;0.50;;;;;;;-142.37;100.00;59669.53;4973347;28;20400;-64
2022/09/02 09:35:51;;;;;;;0.50;0.50;;;;;;;-142.37;100.00;59669.53;4973307;28;20506;-64
2022/09/02 09:38:30;;;;;;;2.53;0.50;;;;;;;-142.37;100.00;59669.53;4972295;28;20117;-64
2022/09/02 09:41:19;;;;;;;2.75;0.80;;;;;;;-142.37;100.00;59669.53;4973564;28;20473;-64
2022/09/02 09:43:45;;;;;;;0.80;0.28;;;;;;;-142.37;100.00;59669.53;4973646;28;20034;-64
2022/09/02 09:46:40;;;;;;;1.42;0.50;;;;;;;-142.37;100.00;59669.53;4973318;28;20498;-64
2022/09/02 09:49:05;;;;;;;1.42;0.70;;;;;;;-142.37;100.00;59669.53;4942955;28;20035;-64
2022/09/02 09:51:31;;;;;;;1.65;1.02;;;;;;;-142.37;100.00;59669.53;4955647;28;20138;-62
2022/09/02 09:54:15;;;;;;;0.30;0.30;;;;;;;-142.37;100.00;59669.53;4955631;28;20113;-64
2022/09/02 09:56:41;;;;;;;0.75;0.30;;;;;;;-142.37;100.00;59669.53;4955393;28;20033;-65
2022/09/02 09:59:27;;;;;;;1.33;0.50;;;;;;;-142.37;100.00;59669.53;4971974;28;20050;-62
2022/09/02 10:01:53;;;;;;;0.70;0.32;;;;;;;-142.37;100.00;59669.53;4972348;28;20031;-65
2022/09/02 10:04:29;;;;;;;1.92;0.60;;;;;;;-142.37;100.00;59669.53;4972182;28;20113;-64
2022/09/02 10:06:56;;;;;;;1.25;0.40;;;;;;;-142.37;100.00;59669.53;4954579;28;20109;-64
2022/09/02 10:09:34;;;;;;;0.75;0.40;;;;;;;-142.37;100.00;59669.53;4972970;28;20049;-62
2022/09/02 10:12:10;;;;;;;2.22;0.43;;;;;;;-142.37;100.00;59669.53;4955035;28;20074;-64
2022/09/02 10:14:43;;;;;;;1.25;0.50;;;;;;;-142.37;100.00;59669.53;4955741;28;20100;-64
2022/09/02 10:17:21;;;;;;;0.93;0.65;;;;;;;-142.37;100.00;59669.53;4972286;28;20392;-62
2022/09/02 10:20:11;;;;;;;0.85;0.30;;;;;;;-142.37;100.00;59669.53;4971708;28;20081;-64
2022/09/02 10:22:56;;;;;;;1.85;0.32;;;;;;;-142.37;100.00;59669.53;4972118;28;20026;-63
2022/09/02 10:25:47;;;;;;;1.42;1.00;;;;;;;-142.37;100.00;59669.53;4955263;28;20040;-63
2022/09/02 10:28:22;;;;;;;1.15;0.40;;;;;;;-142.37;100.00;59669.53;4971072;28;20487;-64
2022/09/02 10:31:03;;;;;;;2.15;0.70;;;;;;;-142.37;100.00;59669.53;4970951;28;20035;-63
2022/09/02 10:33:40;;;;;;;0.70;0.50;;;;;;;-142.37;100.00;59669.53;4972580;28;20403;-63
2022/09/02 10:36:17;;;;;;;0.40;0.40;;;;;;;-142.37;100.00;59669.53;4972220;28;20027;-65
2022/09/02 10:38:45;;;;;;;0.65;0.50;;;;;;;-142.37;100.00;59669.53;4972404;28;20106;-64
2022/09/02 10:41:30;;;;;;;1.13;0.43;;;;;;;-142.37;100.00;59669.53;4972142;28;20030;-65
2022/09/02 10:44:26;;;;;;;1.10;0.43;;;;;;;-142.37;100.00;59669.53;4970632;28;20030;-64
2022/09/02 10:47:03;;;;;;;0.98;0.45;;;;;;;-142.37;100.00;59669.53;4972374;28;20034;-63
2022/09/02 10:50:01;;;;;;;0.38;0.38;;;;;;;-142.37;100.00;59669.53;4972046;28;20034;-66
2022/09/02 10:52:50;;;;;;;0.77;0.47;;;;;;;-142.37;100.00;59669.53;4972540;28;20035;-64
2022/09/02 10:55:24;;;;;;;0.38;0.30;;;;;;;-142.37;100.00;59669.53;4972753;28;20112;-63
2022/09/02 10:58:05;;;;;;;0.70;0.30;;;;;;;-142.37;100.00;59669.53;4971929;28;20035;-65
2022/09/02 11:00:35;;;;;;;1.83;0.50;;;;;;;-142.37;100.00;59669.53;4955206;28;20069;-64
2022/09/02 11:03:25;;;;;;;6.50;0.98;;;;;;;-142.37;100.00;59669.53;4971263;28;20046;-60
2022/09/02 11:05:55;;;;;;;1.00;0.50;;;;;;;-142.37;100.00;59669.53;4971227;28;20452;-61
2022/09/02 11:08:43;;;;;;;1.73;0.65;;;;;;;-142.37;100.00;59669.53;4972092;28;20056;-62
2022/09/02 11:11:20;;;;;;;3.38;0.32;;;;;;;-142.37;100.00;59669.53;4955135;28;20030;-61
2022/09/02 11:13:48;;;;;;;3.10;1.70;;;;;;;-142.37;100.00;59669.53;4955074;28;20066;-61
2022/09/02 11:16:23;;;;;;;3.80;0.98;;;;;;;-142.37;100.00;59669.53;4972375;28;20058;-60
2022/09/02 11:19:08;;;;;;;;;;;;;;;-142.37;100.00;59669.53;4973219;28;20062;-62
2022/09/02 11:21:56;;;;;;;3.03;0.73;;;;;;;-142.37;100.00;59669.53;4972629;28;19957;-61
2022/09/02 11:24:37;;;;;;;0.30;0.30;;;;;;;-142.37;100.00;59669.53;4955155;28;20129;-61